Time;durP1;ratioP1;P1;durP2;ratioP2;P2;SDS_P1;SDS_P2;PMS_P1;PMS_P2;Temp;Humidity;BMP_temperature;BMP_pressure;BME280_temperature;BME280_humidity;BME280_pressure;Samples;Min_cycle;Max_cycle;Signal;HPM_P1;HPM_P2
2022/07/09 00:01:46;;;;;;;4.25;2.55;;;15.10;59.40;;;;;;4971952;28;20205;-43
2022/07/09 00:04:17;;;;;;;5.82;2.80;;;15.10;59.40;;;;;;4966121;28;20230;-43
2022/07/09 00:06:48;;;;;;;3.42;2.30;;;15.10;59.40;;;;;;4952822;28;20202;-43
2022/07/09 00:09:20;;;;;;;4.10;2.50;;;15.10;59.40;;;;;;4952494;28;20207;-44
2022/07/09 00:11:52;;;;;;;2.95;2.40;;;15.10;59.40;;;;;;4951884;28;20195;-44
2022/07/09 00:14:23;;;;;;;4.00;2.40;;;15.10;59.40;;;;;;4952643;28;20609;-45
2022/07/09 00:16:53;;;;;;;4.57;2.63;;;15.10;59.40;;;;;;4954852;28;20601;-44
2022/07/09 00:19:24;;;;;;;5.15;2.92;;;15.10;59.40;;;;;;4970759;28;20217;-44
2022/07/09 00:21:55;;;;;;;4.93;2.75;;;15.10;59.40;;;;;;4971477;28;20225;-43
2022/07/09 00:24:27;;;;;;;5.05;2.83;;;15.10;59.40;;;;;;4971447;28;20570;-44
2022/07/09 00:26:58;;;;;;;4.55;2.70;;;15.10;59.40;;;;;;4973836;28;20203;-44
2022/07/09 00:29:29;;;;;;;5.13;2.75;;;15.10;59.40;;;;;;4971143;28;20202;-44
2022/07/09 00:31:59;;;;;;;5.75;2.83;;;15.10;59.50;;;;;;4971400;28;20583;-44
2022/07/09 00:34:30;;;;;;;4.43;2.78;;;15.10;59.50;;;;;;4970869;28;20197;-45
2022/07/09 00:37:01;;;;;;;4.05;2.70;;;15.10;59.60;;;;;;4973058;28;20673;-45
2022/07/09 00:39:34;;;;;;;4.10;2.50;;;15.10;59.60;;;;;;4990910;28;20198;-46
2022/07/09 00:42:08;;;;;;;4.72;3.03;;;15.10;59.60;;;;;;4990799;28;20229;-45
2022/07/09 00:44:40;;;;;;;3.80;2.70;;;15.10;59.60;;;;;;4990880;28;20260;-46
2022/07/09 00:47:11;;;;;;;4.07;2.83;;;15.10;59.50;;;;;;4973339;28;20680;-44
2022/07/09 00:49:44;;;;;;;6.50;3.10;;;15.10;59.60;;;;;;4970686;28;20661;-45
2022/07/09 00:52:17;;;;;;;4.18;2.70;;;15.10;59.60;;;;;;4971352;28;20277;-44
2022/07/09 00:54:49;;;;;;;4.82;2.97;;;15.10;59.60;;;;;;4967906;28;20190;-45
2022/07/09 00:57:22;;;;;;;4.10;2.80;;;15.10;59.60;;;;;;4971428;28;20212;-46
2022/07/09 00:59:53;;;;;;;4.05;2.60;;;15.10;59.60;;;;;;4971406;28;20198;-45
2022/07/09 01:02:25;;;;;;;6.18;3.08;;;15.10;59.60;;;;;;4971188;28;20218;-45
2022/07/09 01:04:56;;;;;;;8.35;2.92;;;15.10;59.60;;;;;;4963648;28;20234;-47
2022/07/09 01:07:27;;;;;;;5.63;2.97;;;15.10;59.80;;;;;;4967999;28;20206;-44
2022/07/09 01:10:00;;;;;;;6.60;2.90;;;15.10;60.10;;;;;;4971162;28;20210;-45
2022/07/09 01:12:31;;;;;;;9.45;3.40;;;15.20;60.50;;;;;;4970892;28;20229;-46
2022/07/09 01:15:01;;;;;;;8.90;3.45;;;15.20;60.80;;;;;;4970317;28;20197;-47
2022/07/09 01:17:39;;;;;;;8.30;3.75;;;15.20;61.00;;;;;;4970749;28;20206;-46
2022/07/09 01:20:10;;;;;;;8.90;3.30;;;15.30;61.30;;;;;;4970453;28;20209;-47
2022/07/09 01:22:43;;;;;;;7.03;3.63;;;15.30;61.40;;;;;;4971179;28;20218;-47
2022/07/09 01:25:18;;;;;;;8.45;3.53;;;15.30;61.30;;;;;;4970940;28;20229;-45
2022/07/09 01:27:49;;;;;;;6.93;3.17;;;15.40;61.30;;;;;;4970674;28;20194;-46
2022/07/09 01:30:30;;;;;;;5.57;3.38;;;15.40;61.10;;;;;;4971228;28;20206;-46
2022/07/09 01:33:00;;;;;;;5.50;3.13;;;15.40;61.00;;;;;;4970912;28;20218;-49
2022/07/09 01:35:31;;;;;;;7.20;3.55;;;15.40;61.00;;;;;;4961038;28;20211;-47
2022/07/09 01:38:04;;;;;;;4.07;3.17;;;15.40;60.90;;;;;;4970987;28;20284;-45
2022/07/09 01:40:34;;;;;;;6.07;3.33;;;15.40;60.90;;;;;;4991624;28;20197;-46
2022/07/09 01:43:05;;;;;;;7.97;3.42;;;15.40;60.80;;;;;;4993673;28;20256;-45
2022/07/09 01:45:36;;;;;;;7.45;3.35;;;15.40;60.80;;;;;;4993688;28;20229;-47
2022/07/09 01:48:07;;;;;;;7.35;3.20;;;15.40;60.80;;;;;;4968425;28;20210;-46
2022/07/09 01:50:37;;;;;;;5.05;3.05;;;15.40;60.80;;;;;;4964272;28;20569;-46
2022/07/09 01:53:10;;;;;;;6.53;2.95;;;15.40;60.70;;;;;;4973899;28;20225;-48
2022/07/09 01:55:40;;;;;;;8.82;3.78;;;15.40;60.70;;;;;;4974291;28;20580;-47
2022/07/09 01:58:11;;;;;;;4.40;3.13;;;15.40;60.60;;;;;;4974265;28;20206;-47
2022/07/09 02:00:42;;;;;;;5.70;3.22;;;15.40;60.60;;;;;;4974325;28;20198;-48
2022/07/09 02:03:13;;;;;;;5.75;3.08;;;15.40;60.60;;;;;;4973956;28;20240;-46
2022/07/09 02:05:43;;;;;;;4.88;2.67;;;15.30;60.60;;;;;;4963554;28;20905;-48
2022/07/09 02:08:16;;;;;;;6.22;3.47;;;15.30;60.60;;;;;;4954594;28;20202;-47
2022/07/09 02:10:47;;;;;;;4.63;3.20;;;15.40;60.70;;;;;;4954524;28;20662;-47
2022/07/09 02:13:24;;;;;;;5.90;3.08;;;15.30;60.60;;;;;;4954583;28;20762;-47
2022/07/09 02:15:55;;;;;;;6.05;2.83;;;15.30;60.60;;;;;;4954697;28;20575;-46
2022/07/09 02:18:25;;;;;;;4.63;3.05;;;15.30;60.50;;;;;;4969555;28;20206;-47
2022/07/09 02:20:57;;;;;;;5.40;3.10;;;15.30;60.50;;;;;;4973160;28;20202;-47
2022/07/09 02:23:29;;;;;;;3.45;2.75;;;15.30;60.50;;;;;;4973536;28;20312;-46
2022/07/09 02:26:00;;;;;;;5.43;2.95;;;15.30;60.50;;;;;;4973837;28;20233;-46
2022/07/09 02:28:31;;;;;;;5.20;2.65;;;15.30;60.50;;;;;;4976256;28;20206;-46
2022/07/09 02:31:02;;;;;;;4.28;2.70;;;15.30;60.50;;;;;;4973852;28;20565;-47
2022/07/09 02:33:33;;;;;;;3.53;2.90;;;15.30;60.50;;;;;;4973602;28;20229;-47
2022/07/09 02:36:03;;;;;;;4.38;2.72;;;15.30;60.60;;;;;;4972778;28;20257;-45
2022/07/09 02:38:36;;;;;;;3.90;2.53;;;15.30;60.60;;;;;;4987623;28;20204;-46
2022/07/09 02:41:07;;;;;;;4.82;2.78;;;15.30;60.70;;;;;;4993076;28;20213;-48
2022/07/09 02:43:38;;;;;;;5.05;2.70;;;15.30;60.60;;;;;;4992688;28;20240;-45
2022/07/09 02:46:08;;;;;;;3.60;2.55;;;15.30;61.40;;;;;;4992624;28;20314;-46
2022/07/09 02:48:39;;;;;;;4.97;2.60;;;15.30;60.60;;;;;;4958990;28;20202;-47
2022/07/09 02:51:10;;;;;;;4.25;2.55;;;15.30;60.60;;;;;;4965017;28;20216;-46
2022/07/09 02:53:42;;;;;;;3.97;2.60;;;15.30;60.50;;;;;;4970098;28;20233;-46
2022/07/09 02:56:13;;;;;;;3.17;2.28;;;15.30;60.60;;;;;;4973246;28;20206;-47
2022/07/09 02:58:44;;;;;;;3.47;2.60;;;15.30;60.60;;;;;;4972965;28;20827;-46
2022/07/09 03:01:14;;;;;;;3.63;2.60;;;15.30;60.60;;;;;;4973447;28;20199;-48
2022/07/09 03:03:46;;;;;;;3.72;2.50;;;15.30;60.60;;;;;;4971918;28;20225;-48
2022/07/09 03:06:16;;;;;;;3.28;2.33;;;15.20;60.50;;;;;;4960094;28;20235;-47
2022/07/09 03:08:49;;;;;;;2.72;2.20;;;15.20;60.50;;;;;;4953709;28;20664;-45
2022/07/09 03:11:20;;;;;;;3.33;2.50;;;15.20;60.50;;;;;;4953858;28;20199;-47
2022/07/09 03:13:50;;;;;;;4.70;2.35;;;15.30;60.50;;;;;;4954061;28;20411;-48
2022/07/09 03:16:21;;;;;;;3.30;2.10;;;15.30;60.50;;;;;;4953545;28;20215;-46
2022/07/09 03:18:52;;;;;;;2.85;2.25;;;15.30;60.50;;;;;;4972168;28;20542;-47
2022/07/09 03:21:22;;;;;;;4.05;2.65;;;15.30;60.50;;;;;;4959983;28;20206;-48
2022/07/09 03:23:55;;;;;;;3.20;2.30;;;15.20;60.40;;;;;;4970708;28;20218;-46
2022/07/09 03:26:26;;;;;;;4.35;2.38;;;15.20;60.40;;;;;;4972764;28;20237;-45
2022/07/09 03:28:56;;;;;;;3.30;2.40;;;15.20;60.40;;;;;;4972636;28;20201;-45
2022/07/09 03:31:27;;;;;;;4.00;2.33;;;15.20;60.50;;;;;;4972598;28;20737;-47
2022/07/09 03:33:58;;;;;;;2.92;2.25;;;15.20;60.50;;;;;;4972619;28;20214;-45
2022/07/09 03:36:28;;;;;;;3.50;2.45;;;15.20;60.50;;;;;;4960732;28;20199;-46
2022/07/09 03:39:01;;;;;;;3.20;2.03;;;15.20;60.40;;;;;;4953181;28;20282;-47
2022/07/09 03:41:32;;;;;;;3.90;2.35;;;15.20;60.40;;;;;;4953284;28;20206;-47
2022/07/09 03:44:03;;;;;;;3.85;2.35;;;15.20;60.40;;;;;;4953306;28;20214;-47
2022/07/09 03:46:33;;;;;;;2.20;1.80;;;15.20;60.40;;;;;;4952684;28;20248;-45
2022/07/09 03:49:04;;;;;;;4.03;2.08;;;15.20;60.30;;;;;;4970999;28;20318;-47
2022/07/09 03:51:35;;;;;;;2.40;1.70;;;15.20;60.30;;;;;;4956498;28;20199;-46
2022/07/09 03:54:07;;;;;;;2.60;1.88;;;15.20;60.30;;;;;;4966524;28;20671;-46
2022/07/09 03:56:38;;;;;;;2.28;2.03;;;15.10;60.30;;;;;;4972195;28;20198;-46
2022/07/09 03:59:09;;;;;;;2.33;2.10;;;15.10;60.30;;;;;;4968726;28;20202;-45
2022/07/09 04:01:39;;;;;;;2.00;1.70;;;15.20;60.40;;;;;;4972160;28;20194;-46
2022/07/09 04:04:10;;;;;;;2.95;2.03;;;15.10;60.40;;;;;;4971579;28;20205;-48
2022/07/09 04:06:41;;;;;;;2.63;2.30;;;15.10;60.30;;;;;;4959801;28;20203;-47
2022/07/09 04:09:13;;;;;;;3.20;2.05;;;15.10;60.30;;;;;;4952525;28;20203;-46
2022/07/09 04:11:44;;;;;;;3.67;2.20;;;15.10;60.30;;;;;;4952618;28;20215;-45
2022/07/09 04:14:16;;;;;;;2.30;2.00;;;15.10;60.30;;;;;;4953043;28;20573;-46
2022/07/09 04:16:46;;;;;;;2.35;1.90;;;15.10;60.20;;;;;;4954072;28;20210;-45
2022/07/09 04:19:17;;;;;;;3.95;1.98;;;15.10;60.30;;;;;;4971800;28;20564;-45
2022/07/09 04:21:48;;;;;;;2.70;2.13;;;15.10;60.30;;;;;;4971046;28;20198;-46
2022/07/09 04:24:20;;;;;;;2.83;2.03;;;15.10;60.30;;;;;;4974235;28;20190;-46
2022/07/09 04:26:51;;;;;;;3.70;2.03;;;15.10;60.30;;;;;;4971814;28;20202;-44
2022/07/09 04:29:21;;;;;;;3.20;2.10;;;15.10;60.30;;;;;;4971518;28;20202;-45
2022/07/09 04:31:52;;;;;;;2.40;2.00;;;15.10;60.40;;;;;;4971583;28;20209;-45
2022/07/09 04:34:23;;;;;;;1.98;1.70;;;15.10;60.40;;;;;;4971582;28;20202;-45
2022/07/09 04:36:53;;;;;;;2.50;1.88;;;15.10;60.30;;;;;;4970720;28;20201;-47
2022/07/09 04:39:27;;;;;;;2.20;1.80;;;15.10;60.30;;;;;;4970991;28;20209;-47
2022/07/09 04:41:57;;;;;;;2.17;1.77;;;15.10;60.30;;;;;;4971127;28;20218;-45
2022/07/09 04:44:28;;;;;;;2.38;1.95;;;15.10;60.20;;;;;;4971311;28;20205;-44
2022/07/09 04:46:59;;;;;;;2.00;1.75;;;15.00;60.20;;;;;;4971099;28;20202;-45
2022/07/09 04:49:29;;;;;;;2.05;1.80;;;15.00;60.30;;;;;;4971269;28;20198;-45
2022/07/09 04:52:00;;;;;;;2.15;1.90;;;15.00;60.30;;;;;;4970164;28;20224;-45
2022/07/09 04:54:33;;;;;;;2.40;1.55;;;15.00;60.30;;;;;;4971212;28;20194;-45
2022/07/09 04:57:04;;;;;;;3.20;1.85;;;15.00;60.40;;;;;;4971176;28;20213;-45
2022/07/09 04:59:34;;;;;;;2.13;1.83;;;15.00;60.30;;;;;;4971276;28;20581;-45
2022/07/09 05:02:06;;;;;;;2.55;1.88;;;15.00;60.30;;;;;;4971120;28;20761;-46
2022/07/09 05:04:36;;;;;;;2.00;1.80;;;15.00;60.30;;;;;;4971199;28;20202;-46
2022/07/09 05:07:07;;;;;;;3.42;1.90;;;15.00;60.30;;;;;;4959362;28;20207;-45
2022/07/09 05:09:40;;;;;;;2.88;1.75;;;15.00;60.20;;;;;;4951640;28;20202;-46
2022/07/09 05:12:11;;;;;;;1.90;1.65;;;15.00;60.30;;;;;;4951865;28;20215;-46
2022/07/09 05:14:42;;;;;;;1.80;1.60;;;14.90;60.20;;;;;;4953956;28;20187;-45
2022/07/09 05:17:13;;;;;;;1.80;1.58;;;14.90;60.20;;;;;;4960606;28;20682;-44
2022/07/09 05:19:46;;;;;;;2.13;1.58;;;14.90;60.20;;;;;;4974900;28;20194;-46
2022/07/09 05:22:17;;;;;;;2.10;1.75;;;14.90;60.20;;;;;;4974215;28;20287;-47
2022/07/09 05:24:49;;;;;;;3.45;1.85;;;14.90;60.20;;;;;;4975105;28;20201;-45
2022/07/09 05:27:20;;;;;;;1.83;1.63;;;14.90;60.20;;;;;;4974921;28;20209;-46
2022/07/09 05:29:51;;;;;;;3.03;1.83;;;14.90;60.20;;;;;;4974984;28;20201;-45
2022/07/09 05:32:22;;;;;;;2.50;1.77;;;14.90;60.10;;;;;;4975129;28;20257;-45
2022/07/09 05:34:52;;;;;;;2.15;1.73;;;14.90;60.20;;;;;;4966984;28;20205;-46
2022/07/09 05:37:23;;;;;;;3.38;2.15;;;14.90;60.20;;;;;;4976666;28;20201;-47
2022/07/09 05:39:58;;;;;;;1.73;1.40;;;14.90;60.20;;;;;;4955402;28;20199;-46
2022/07/09 05:42:29;;;;;;;2.47;1.60;;;14.90;60.20;;;;;;4977717;28;20244;-46
2022/07/09 05:45:00;;;;;;;2.08;1.80;;;14.90;60.20;;;;;;4994652;28;20672;-49
2022/07/09 05:47:31;;;;;;;2.72;1.70;;;14.90;60.20;;;;;;4965676;28;20308;-48
2022/07/09 05:50:01;;;;;;;1.98;1.77;;;14.80;60.20;;;;;;4956466;28;20206;-51
2022/07/09 05:52:32;;;;;;;2.08;1.70;;;14.90;60.20;;;;;;4971736;28;20214;-48
2022/07/09 05:55:05;;;;;;;2.20;1.70;;;14.80;60.20;;;;;;4975185;28;20198;-50
2022/07/09 05:57:35;;;;;;;2.63;1.77;;;14.80;60.10;;;;;;4986038;28;20197;-47
2022/07/09 06:00:07;;;;;;;1.73;1.50;;;14.90;60.10;;;;;;4966348;28;20203;-47
2022/07/09 06:02:37;;;;;;;3.17;1.65;;;14.80;60.10;;;;;;4969774;28;20226;-47
2022/07/09 06:05:09;;;;;;;2.72;1.80;;;14.80;60.10;;;;;;4955465;28;20203;-47
2022/07/09 06:07:44;;;;;;;1.65;1.55;;;14.80;60.10;;;;;;4976916;28;20197;-46
2022/07/09 06:10:19;;;;;;;1.88;1.58;;;14.80;60.10;;;;;;4994115;28;20212;-46
2022/07/09 06:12:50;;;;;;;3.15;1.77;;;14.80;60.10;;;;;;4993933;28;20209;-47
2022/07/09 06:15:21;;;;;;;2.30;1.70;;;14.80;60.10;;;;;;4994540;28;20202;-48
2022/07/09 06:17:52;;;;;;;1.60;1.50;;;14.80;60.10;;;;;;4972712;28;20647;-46
2022/07/09 06:20:22;;;;;;;1.95;1.50;;;14.80;60.20;;;;;;4954922;28;20203;-46
2022/07/09 06:22:53;;;;;;;1.65;1.30;;;14.80;60.10;;;;;;4970675;28;20225;-47
2022/07/09 06:25:26;;;;;;;2.22;1.52;;;14.80;60.20;;;;;;4973678;28;20241;-47
2022/07/09 06:27:56;;;;;;;2.17;1.60;;;14.80;60.10;;;;;;4986049;28;20668;-49
2022/07/09 06:30:27;;;;;;;2.15;1.40;;;14.80;60.90;;;;;;4975745;28;20198;-47
2022/07/09 06:32:58;;;;;;;1.70;1.60;;;14.80;60.10;;;;;;4985910;28;20611;-47
2022/07/09 06:35:29;;;;;;;1.75;1.50;;;14.80;60.10;;;;;;4993820;28;20228;-48
2022/07/09 06:38:00;;;;;;;1.55;1.25;;;14.80;60.10;;;;;;4993693;28;20193;-47
2022/07/09 06:40:34;;;;;;;2.10;1.67;;;14.70;60.00;;;;;;4994510;28;20677;-47
2022/07/09 06:43:04;;;;;;;2.35;1.60;;;14.70;60.10;;;;;;4993576;28;20221;-47
2022/07/09 06:45:35;;;;;;;1.63;1.30;;;14.70;60.10;;;;;;4994099;28;20560;-45
2022/07/09 06:48:06;;;;;;;2.28;1.65;;;14.70;60.00;;;;;;4993500;28;20515;-46
2022/07/09 06:50:37;;;;;;;2.00;1.70;;;14.70;60.20;;;;;;4993449;28;20205;-46
2022/07/09 06:53:07;;;;;;;1.83;1.50;;;14.70;60.20;;;;;;4993229;28;20218;-46
2022/07/09 06:55:40;;;;;;;2.70;1.45;;;14.80;60.40;;;;;;4993475;28;20198;-46
2022/07/09 06:58:10;;;;;;;4.38;2.38;;;14.80;60.50;;;;;;4992881;28;20200;-48
2022/07/09 07:00:42;;;;;;;4.90;1.98;;;14.80;60.50;;;;;;4993855;28;20665;-48
2022/07/09 07:03:13;;;;;;;2.85;1.90;;;14.80;60.80;;;;;;4993816;28;20209;-48
2022/07/09 07:05:44;;;;;;;4.53;2.00;;;14.80;61.20;;;;;;4992850;28;20232;-46
2022/07/09 07:08:15;;;;;;;5.22;1.80;;;14.80;61.30;;;;;;4976730;28;20285;-46
2022/07/09 07:10:47;;;;;;;3.90;1.80;;;14.80;61.40;;;;;;4973445;28;20565;-50
2022/07/09 07:13:18;;;;;;;1.95;1.73;;;14.80;61.20;;;;;;4986877;28;20216;-46
2022/07/09 07:15:50;;;;;;;6.82;2.38;;;14.80;61.10;;;;;;4993228;28;20205;-47
2022/07/09 07:18:21;;;;;;;3.25;1.92;;;14.80;61.00;;;;;;4990078;28;20293;-46
2022/07/09 07:20:51;;;;;;;2.97;1.95;;;14.80;60.90;;;;;;4993086;28;20562;-46
2022/07/09 07:23:22;;;;;;;4.47;1.77;;;14.80;60.80;;;;;;4993396;28;20221;-47
2022/07/09 07:25:54;;;;;;;3.65;2.05;;;14.80;60.80;;;;;;4992659;28;20229;-47
2022/07/09 07:28:25;;;;;;;2.58;1.92;;;14.70;60.70;;;;;;4991957;28;20642;-47
2022/07/09 07:30:56;;;;;;;2.80;1.63;;;14.70;60.70;;;;;;4974176;28;20194;-47
2022/07/09 07:33:27;;;;;;;2.60;1.80;;;14.70;60.60;;;;;;4986594;28;20268;-46
2022/07/09 07:35:57;;;;;;;3.05;2.10;;;14.70;60.60;;;;;;4992426;28;20209;-46
2022/07/09 07:38:28;;;;;;;3.17;1.70;;;14.70;60.60;;;;;;4991872;28;20653;-46
2022/07/09 07:41:00;;;;;;;1.90;1.70;;;14.70;60.60;;;;;;4993379;28;20252;-46
2022/07/09 07:43:31;;;;;;;2.38;1.92;;;14.70;60.60;;;;;;4991881;28;20213;-46
2022/07/09 07:46:02;;;;;;;3.45;2.20;;;14.70;60.60;;;;;;4992918;28;20244;-46
2022/07/09 07:48:35;;;;;;;3.03;1.88;;;14.70;60.60;;;;;;4986389;28;20202;-47
2022/07/09 07:51:06;;;;;;;3.03;2.13;;;14.70;60.60;;;;;;4991862;28;20198;-46
2022/07/09 07:53:37;;;;;;;2.22;1.70;;;14.70;60.60;;;;;;4992593;28;20213;-46
2022/07/09 07:56:10;;;;;;;3.47;1.90;;;14.70;60.50;;;;;;4970304;28;20673;-46
2022/07/09 07:58:42;;;;;;;2.22;1.85;;;14.70;60.50;;;;;;4973242;28;20650;-45
2022/07/09 08:01:12;;;;;;;1.92;1.58;;;14.60;61.30;;;;;;4974014;28;20205;-45
2022/07/09 08:03:43;;;;;;;2.88;1.83;;;14.60;60.50;;;;;;4973959;28;20229;-46
2022/07/09 08:06:14;;;;;;;2.47;1.73;;;14.60;60.50;;;;;;4968810;28;20667;-46
2022/07/09 08:08:45;;;;;;;3.80;1.90;;;14.60;60.50;;;;;;4954365;28;20203;-45
2022/07/09 08:11:17;;;;;;;4.13;1.95;;;14.60;60.50;;;;;;4954263;28;20685;-46
2022/07/09 08:13:48;;;;;;;3.80;1.85;;;14.60;60.50;;;;;;4954672;28;20222;-46
2022/07/09 08:16:19;;;;;;;3.97;1.90;;;14.60;60.50;;;;;;4953865;28;20687;-46
2022/07/09 08:18:50;;;;;;;3.42;1.70;;;14.60;60.40;;;;;;4972139;28;20198;-46
2022/07/09 08:21:21;;;;;;;2.95;1.63;;;14.60;60.40;;;;;;4972318;28;20201;-46
2022/07/09 08:23:55;;;;;;;2.78;1.90;;;14.60;60.40;;;;;;4973216;28;20224;-46
2022/07/09 08:26:29;;;;;;;2.15;1.80;;;14.60;60.40;;;;;;4973161;28;20221;-45
2022/07/09 08:29:00;;;;;;;3.60;1.50;;;14.60;60.40;;;;;;4972928;28;20202;-46
2022/07/09 08:31:31;;;;;;;1.85;1.50;;;14.60;60.50;;;;;;4975656;28;20217;-45
2022/07/09 08:34:01;;;;;;;2.85;1.70;;;14.60;60.50;;;;;;4972905;28;20202;-46
2022/07/09 08:36:32;;;;;;;3.13;1.85;;;14.60;60.40;;;;;;4972290;28;20232;-47
2022/07/09 08:39:03;;;;;;;2.90;1.90;;;14.60;60.50;;;;;;4973169;28;20205;-47
2022/07/09 08:41:36;;;;;;;2.10;1.65;;;14.50;60.40;;;;;;4973082;28;20202;-46
2022/07/09 08:44:07;;;;;;;2.10;1.67;;;14.60;60.60;;;;;;4972883;28;20202;-46
2022/07/09 08:46:38;;;;;;;2.35;1.80;;;14.60;60.70;;;;;;4959662;28;20226;-49
2022/07/09 08:49:10;;;;;;;3.75;1.88;;;14.60;60.90;;;;;;4953334;28;20210;-47
2022/07/09 08:51:43;;;;;;;2.40;1.77;;;14.60;60.90;;;;;;4977386;28;20190;-48
2022/07/09 08:54:14;;;;;;;1.80;1.60;;;14.60;60.90;;;;;;4953989;28;20289;-48
2022/07/09 08:56:47;;;;;;;3.03;1.70;;;14.60;60.80;;;;;;4984381;28;20221;-48
2022/07/09 08:59:18;;;;;;;1.90;1.45;;;14.50;60.70;;;;;;4991294;28;20197;-47
2022/07/09 09:01:49;;;;;;;2.25;1.50;;;14.60;60.80;;;;;;4991236;28;20201;-51
2022/07/09 09:04:20;;;;;;;2.33;1.67;;;14.50;60.70;;;;;;4981503;28;20217;-46
2022/07/09 09:06:53;;;;;;;2.17;1.58;;;14.50;60.70;;;;;;4988149;28;20596;-49
2022/07/09 09:09:24;;;;;;;1.98;1.50;;;14.50;60.70;;;;;;4991469;28;20224;-49
2022/07/09 09:12:00;;;;;;;1.73;1.60;;;14.50;60.60;;;;;;4971280;28;20677;-52
2022/07/09 09:14:33;;;;;;;1.48;1.20;;;14.50;60.60;;;;;;4972727;28;20198;-50
2022/07/09 09:17:11;;;;;;;2.28;1.52;;;14.50;60.60;;;;;;4981322;28;20214;-47
2022/07/09 09:19:42;;;;;;;3.42;1.80;;;14.50;60.60;;;;;;4953077;28;20281;-47
2022/07/09 09:22:16;;;;;;;2.95;1.50;;;14.50;60.60;;;;;;4989029;28;20232;-46
2022/07/09 09:24:53;;;;;;;1.67;1.35;;;14.50;60.60;;;;;;4991261;28;20668;-46
2022/07/09 09:27:33;;;;;;;2.03;1.58;;;14.50;60.60;;;;;;4991461;28;20320;-48
2022/07/09 09:30:04;;;;;;;2.45;1.40;;;14.50;60.60;;;;;;4991098;28;20201;-48
2022/07/09 09:32:34;;;;;;;2.03;1.30;;;14.50;60.60;;;;;;4991245;28;20919;-46
2022/07/09 09:35:07;;;;;;;2.20;1.70;;;14.50;60.60;;;;;;4990692;28;20212;-47
2022/07/09 09:37:38;;;;;;;1.48;1.35;;;14.50;60.60;;;;;;4990986;28;20198;-46
2022/07/09 09:40:13;;;;;;;2.83;1.80;;;14.50;60.60;;;;;;4986824;28;20221;-49
2022/07/09 09:42:46;;;;;;;3.50;1.63;;;14.50;60.60;;;;;;4991278;28;20220;-46
2022/07/09 09:45:18;;;;;;;2.13;1.60;;;14.50;60.60;;;;;;4977981;28;20206;-46
2022/07/09 09:47:50;;;;;;;3.17;1.60;;;14.50;60.70;;;;;;4977245;28;20682;-47
2022/07/09 09:50:22;;;;;;;1.80;1.55;;;14.50;60.60;;;;;;4973315;28;20202;-45
2022/07/09 09:52:54;;;;;;;2.05;1.50;;;14.50;60.70;;;;;;4991419;28;20719;-46
2022/07/09 09:55:26;;;;;;;2.60;1.60;;;14.50;60.60;;;;;;4977285;28;20203;-46
2022/07/09 09:57:59;;;;;;;2.70;1.88;;;14.50;60.70;;;;;;4991096;28;20731;-46
2022/07/09 10:00:30;;;;;;;2.25;1.63;;;14.50;60.70;;;;;;4990709;28;20563;-46
2022/07/09 10:03:02;;;;;;;2.45;1.50;;;14.50;60.60;;;;;;4994180;28;20213;-46
2022/07/09 10:05:32;;;;;;;2.78;1.80;;;14.50;60.60;;;;;;4994399;28;20204;-46
2022/07/09 10:08:03;;;;;;;2.40;1.42;;;14.50;60.60;;;;;;4994146;28;20598;-47
2022/07/09 10:10:34;;;;;;;1.85;1.70;;;14.50;60.60;;;;;;4994336;28;20676;-46
2022/07/09 10:13:06;;;;;;;2.83;1.73;;;14.50;60.70;;;;;;4993772;28;20236;-46
2022/07/09 10:15:38;;;;;;;1.92;1.40;;;14.50;61.00;;;;;;4994463;28;20205;-46
2022/07/09 10:18:14;;;;;;;2.50;1.63;;;14.50;61.00;;;;;;4969054;28;20262;-45
2022/07/09 10:20:47;;;;;;;1.98;1.60;;;14.40;60.90;;;;;;4962207;28;20212;-46
2022/07/09 10:23:25;;;;;;;2.10;1.42;;;14.50;60.90;;;;;;4994708;28;20225;-45
2022/07/09 10:25:57;;;;;;;2.20;1.60;;;14.50;60.80;;;;;;4993861;28;20203;-48
2022/07/09 10:28:30;;;;;;;3.40;2.13;;;14.40;60.80;;;;;;4979200;28;20218;-46
2022/07/09 10:31:12;;;;;;;3.40;1.90;;;14.50;60.80;;;;;;4979392;28;20244;-46
2022/07/09 10:33:51;;;;;;;3.25;1.73;;;14.50;60.70;;;;;;4993737;28;20300;-46
2022/07/09 10:36:22;;;;;;;2.00;1.80;;;14.50;60.80;;;;;;4993633;28;20205;-46
2022/07/09 10:38:57;;;;;;;2.95;1.95;;;14.50;60.70;;;;;;4994298;28;20204;-46
2022/07/09 10:41:28;;;;;;;2.58;1.50;;;14.40;60.70;;;;;;4986150;28;20193;-46
2022/07/09 10:44:01;;;;;;;2.13;1.67;;;14.50;60.70;;;;;;4994081;28;20221;-47
2022/07/09 10:46:32;;;;;;;3.22;2.10;;;14.40;60.70;;;;;;4993241;28;20197;-46
2022/07/09 10:49:03;;;;;;;2.03;1.60;;;14.40;60.70;;;;;;4955066;28;20195;-45
2022/07/09 10:51:35;;;;;;;2.78;1.80;;;14.40;60.70;;;;;;4971593;28;20198;-47
2022/07/09 10:54:06;;;;;;;3.00;1.75;;;14.40;60.70;;;;;;4993515;28;20720;-46
2022/07/09 10:56:40;;;;;;;3.08;1.83;;;14.40;60.70;;;;;;4993858;28;20194;-46
2022/07/09 10:59:18;;;;;;;2.38;1.70;;;14.40;60.70;;;;;;4993222;28;20206;-46
2022/07/09 11:01:50;;;;;;;2.42;1.40;;;14.40;60.70;;;;;;4993579;28;20228;-45
2022/07/09 11:04:34;;;;;;;2.90;1.88;;;14.40;60.70;;;;;;4992805;28;20249;-47
2022/07/09 11:07:04;;;;;;;6.68;1.70;;;14.40;60.90;;;;;;4993396;28;20316;-48
2022/07/09 11:09:35;;;;;;;4.70;1.98;;;14.40;61.20;;;;;;4992812;28;20209;-45
2022/07/09 11:12:09;;;;;;;9.15;1.90;;;14.50;62.20;;;;;;4979726;28;20229;-46
2022/07/09 11:14:49;;;;;;;3.40;1.80;;;14.40;61.40;;;;;;4974593;28;20198;-45
2022/07/09 11:17:21;;;;;;;7.88;1.88;;;14.50;61.50;;;;;;4975134;28;20202;-46
2022/07/09 11:19:52;;;;;;;3.17;1.83;;;14.50;61.50;;;;;;4954095;28;20287;-45
2022/07/09 11:22:22;;;;;;;5.25;2.00;;;14.50;61.60;;;;;;4981348;28;20214;-47
2022/07/09 11:24:53;;;;;;;3.80;1.75;;;14.50;61.80;;;;;;4993601;28;20198;-46
2022/07/09 11:27:24;;;;;;;5.78;2.00;;;14.50;61.90;;;;;;4992678;28;20221;-46
2022/07/09 11:29:56;;;;;;;3.90;2.20;;;14.50;62.10;;;;;;4993319;28;20208;-46
2022/07/09 11:32:27;;;;;;;6.75;3.28;;;14.50;62.00;;;;;;4992490;28;20222;-47
2022/07/09 11:34:58;;;;;;;3.63;2.17;;;14.50;62.10;;;;;;4992893;28;20197;-46
2022/07/09 11:37:28;;;;;;;5.15;2.42;;;14.50;62.40;;;;;;4992100;28;20650;-46
2022/07/09 11:39:59;;;;;;;4.30;2.10;;;14.50;62.30;;;;;;4989499;28;20203;-46
2022/07/09 11:42:30;;;;;;;3.42;2.20;;;14.50;62.20;;;;;;4986029;28;20210;-47
2022/07/09 11:45:03;;;;;;;4.50;2.10;;;14.50;62.30;;;;;;4992667;28;20652;-47
2022/07/09 11:47:37;;;;;;;4.30;3.03;;;14.50;62.20;;;;;;4976959;28;20238;-47
2022/07/09 11:50:12;;;;;;;3.22;2.13;;;14.50;62.20;;;;;;4953709;28;20609;-47
2022/07/09 11:52:48;;;;;;;3.70;2.25;;;14.50;62.10;;;;;;4982863;28;20213;-47
2022/07/09 11:55:20;;;;;;;3.47;2.30;;;14.50;62.00;;;;;;4992558;28;20201;-46
2022/07/09 11:57:58;;;;;;;4.15;2.47;;;14.50;62.00;;;;;;4991940;28;20208;-46
2022/07/09 12:00:31;;;;;;;2.92;2.00;;;14.50;61.90;;;;;;4992138;28;20644;-46
2022/07/09 12:03:03;;;;;;;2.42;1.95;;;14.50;61.90;;;;;;4992755;28;20221;-46
2022/07/09 12:05:35;;;;;;;4.85;2.70;;;14.50;61.80;;;;;;4956842;28;20292;-46
2022/07/09 12:08:07;;;;;;;5.75;2.67;;;14.50;61.80;;;;;;4987070;28;20229;-46
2022/07/09 12:10:40;;;;;;;3.88;2.67;;;14.40;62.00;;;;;;4992692;28;20208;-46
2022/07/09 12:13:14;;;;;;;4.85;3.20;;;14.50;62.20;;;;;;4992641;28;20433;-47
2022/07/09 12:15:47;;;;;;;4.05;2.53;;;14.40;62.10;;;;;;4992182;28;20288;-48
2022/07/09 12:18:17;;;;;;;5.20;2.53;;;14.40;62.00;;;;;;4963333;28;20213;-45
2022/07/09 12:20:48;;;;;;;4.95;2.40;;;14.40;61.90;;;;;;4952859;28;20209;-45
2022/07/09 12:23:19;;;;;;;4.28;2.30;;;14.40;61.90;;;;;;4955168;28;20226;-46
2022/07/09 12:25:50;;;;;;;3.78;2.35;;;14.40;61.90;;;;;;4971569;28;20206;-46
2022/07/09 12:28:20;;;;;;;5.13;2.40;;;14.40;61.80;;;;;;4971722;28;20229;-45
2022/07/09 12:30:53;;;;;;;3.95;2.55;;;14.40;61.70;;;;;;4971723;28;20646;-46
2022/07/09 12:33:24;;;;;;;3.88;2.40;;;14.40;61.60;;;;;;4971687;28;20222;-46
2022/07/09 12:35:54;;;;;;;5.32;2.55;;;14.40;61.60;;;;;;4974432;28;20201;-46
2022/07/09 12:38:25;;;;;;;4.68;2.63;;;14.40;61.50;;;;;;4971091;28;20203;-45
2022/07/09 12:40:56;;;;;;;5.00;2.50;;;14.30;61.50;;;;;;4971813;28;20556;-48
2022/07/09 12:43:26;;;;;;;4.57;2.35;;;14.40;61.50;;;;;;4971193;28;20708;-45
2022/07/09 12:45:59;;;;;;;4.55;2.40;;;14.40;61.50;;;;;;4971504;28;20202;-47
2022/07/09 12:48:29;;;;;;;3.95;2.45;;;14.40;61.40;;;;;;4971542;28;20233;-46
2022/07/09 12:51:00;;;;;;;4.68;2.30;;;14.30;61.40;;;;;;4971585;28;20198;-46
2022/07/09 12:53:31;;;;;;;3.15;2.13;;;14.30;61.30;;;;;;4970809;28;20233;-47
2022/07/09 12:56:02;;;;;;;4.07;2.15;;;14.30;61.40;;;;;;4971635;28;20707;-46
2022/07/09 12:58:32;;;;;;;3.40;2.38;;;14.30;61.30;;;;;;4971154;28;20194;-48
2022/07/09 13:01:05;;;;;;;3.88;2.38;;;14.30;61.30;;;;;;4971110;28;20885;-46
2022/07/09 13:03:35;;;;;;;4.30;2.45;;;14.30;61.30;;;;;;4970956;28;20225;-46
2022/07/09 13:06:30;;;;;;;3.28;2.47;;;14.30;61.30;;;;;;4971412;28;20681;-45
2022/07/09 13:08:57;;;;;;;5.97;2.60;;;14.30;61.20;;;;;;4965162;28;20233;-48
2022/07/09 13:11:28;;;;;;;5.45;2.63;;;14.30;61.20;;;;;;4951892;28;20230;-47